Time;durP1;ratioP1;P1;durP2;ratioP2;P2;SDS_P1;SDS_P2;PMS_P1;PMS_P2;Temp;Humidity;BMP_temperature;BMP_pressure;BME280_temperature;BME280_humidity;BME280_pressure;Samples;Min_cycle;Max_cycle;Signal;HPM_P1;HPM_P2
2023/03/28 00:01:08;;;;;;;10.43;1.92;;;2.60;99.90;;;;;;5103262;28;20094;-81
2023/03/28 00:03:38;;;;;;;12.75;2.25;;;2.60;99.90;;;;;;5103155;28;20408;-80
2023/03/28 00:06:10;;;;;;;10.25;1.90;;;2.60;99.90;;;;;;5086182;28;20029;-81
2023/03/28 00:08:39;;;;;;;12.25;1.95;;;2.70;99.90;;;;;;5070442;28;20455;-81
2023/03/28 00:11:20;;;;;;;9.27;1.65;;;2.70;99.90;;;;;;5102949;28;20497;-81
2023/03/28 00:13:50;;;;;;;9.73;1.65;;;2.70;99.90;;;;;;5102992;28;20040;-81
2023/03/28 00:16:16;;;;;;;11.85;2.17;;;2.80;99.90;;;;;;5079044;28;20122;-81
2023/03/28 00:18:43;;;;;;;7.05;1.73;;;2.80;99.90;;;;;;5084860;28;20044;-81
2023/03/28 00:21:22;;;;;;;14.65;1.92;;;2.90;99.90;;;;;;5070559;28;20527;-81
2023/03/28 00:23:54;;;;;;;11.45;1.58;;;3.30;99.90;;;;;;5083127;28;20048;-80
2023/03/28 00:26:26;;;;;;;27.73;2.80;;;2.80;99.90;;;;;;5082529;28;20071;-81
2023/03/28 00:28:53;;;;;;;9.75;1.30;;;3.00;99.90;;;;;;5083120;28;20048;-81
2023/03/28 00:31:21;;;;;;;10.88;1.95;;;2.70;99.90;;;;;;5082695;28;20402;-81
2023/03/28 00:33:48;;;;;;;12.93;2.10;;;2.80;99.90;;;;;;5099496;28;20128;-80
2023/03/28 00:36:25;;;;;;;11.88;1.70;;;2.70;99.90;;;;;;5067960;28;20469;-81
2023/03/28 00:38:52;;;;;;;14.45;1.63;;;2.60;99.90;;;;;;5069669;28;20049;-80
2023/03/28 00:41:23;;;;;;;13.32;2.30;;;2.60;99.90;;;;;;5085706;28;20029;-81
2023/03/28 00:43:53;;;;;;;7.93;1.70;;;2.60;99.90;;;;;;5085728;28;20513;-81
2023/03/28 00:46:40;;;;;;;11.35;2.65;;;2.50;99.90;;;;;;5100048;28;20596;-81
2023/03/28 00:49:20;;;;;;;13.85;1.73;;;2.40;99.90;;;;;;5082322;28;20498;-81
2023/03/28 00:51:51;;;;;;;11.95;1.75;;;2.50;99.90;;;;;;5082714;28;20072;-81
2023/03/28 00:54:19;;;;;;;10.00;2.05;;;2.40;99.90;;;;;;5082336;28;20045;-81
2023/03/28 00:56:49;;;;;;;10.55;2.13;;;2.40;99.90;;;;;;5096390;28;20045;-81
2023/03/28 00:59:19;;;;;;;9.13;1.83;;;2.70;99.90;;;;;;5069039;28;20041;-81
2023/03/28 01:01:46;;;;;;;11.20;2.00;;;2.30;99.90;;;;;;5069318;28;20037;-81
2023/03/28 01:04:19;;;;;;;10.10;2.38;;;2.80;99.90;;;;;;5085660;28;20052;-81
2023/03/28 01:06:50;;;;;;;15.73;2.28;;;2.60;99.90;;;;;;5085491;28;20401;-81
2023/03/28 01:09:18;;;;;;;7.85;1.45;;;2.30;99.90;;;;;;5085505;28;20464;-81
2023/03/28 01:11:46;;;;;;;13.30;1.90;;;2.20;99.90;;;;;;5085630;28;20044;-81
2023/03/28 01:14:19;;;;;;;10.85;1.73;;;2.30;99.90;;;;;;5085243;28;20061;-81
2023/03/28 01:16:46;;;;;;;8.38;1.70;;;2.70;99.90;;;;;;5068552;28;20694;-81
2023/03/28 01:19:28;;;;;;;10.55;1.50;;;2.10;99.90;;;;;;5069064;28;20132;-81
2023/03/28 01:22:22;;;;;;;5.82;1.52;;;2.10;99.90;;;;;;5102420;28;20460;-80
2023/03/28 01:25:27;;;;;;;7.13;1.70;;;2.00;99.90;;;;;;5102336;28;20123;-81
2023/03/28 01:28:01;;;;;;;11.70;1.77;;;2.00;99.90;;;;;;5065623;28;20552;-81
2023/03/28 01:30:35;;;;;;;14.63;1.98;;;2.00;99.90;;;;;;5067881;28;20404;-81
2023/03/28 01:33:24;;;;;;;7.03;1.73;;;2.00;99.90;;;;;;5102760;28;20203;-81
2023/03/28 01:36:14;;;;;;;9.38;1.40;;;2.00;99.90;;;;;;5102212;28;20806;-81
2023/03/28 01:39:07;;;;;;;11.93;2.10;;;2.10;99.90;;;;;;5059745;28;20543;-81
2023/03/28 01:41:47;;;;;;;9.85;1.90;;;2.10;99.90;;;;;;5106125;28;20076;-81
2023/03/28 01:44:25;;;;;;;10.57;1.52;;;2.10;99.90;;;;;;5112435;28;20077;-81
2023/03/28 01:47:06;;;;;;;11.68;1.45;;;2.10;99.90;;;;;;5112341;28;20053;-81
2023/03/28 01:49:42;;;;;;;12.15;2.13;;;2.00;99.90;;;;;;5090771;28;20513;-81
2023/03/28 01:52:35;;;;;;;9.63;1.40;;;2.00;99.90;;;;;;5072782;28;20076;-80
2023/03/28 01:55:20;;;;;;;8.02;1.60;;;2.00;99.90;;;;;;5089418;28;20561;-81
2023/03/28 01:57:50;;;;;;;8.38;1.33;;;1.90;99.90;;;;;;5072653;28;20086;-81
2023/03/28 02:00:31;;;;;;;9.00;1.73;;;1.90;99.90;;;;;;5088543;28;20052;-81
2023/03/28 02:03:27;;;;;;;10.95;1.48;;;1.80;99.90;;;;;;5072747;28;20501;-81
2023/03/28 02:05:56;;;;;;;6.70;1.30;;;1.80;99.90;;;;;;5072590;28;20091;-81
2023/03/28 02:08:27;;;;;;;9.55;1.48;;;1.70;99.90;;;;;;5072437;28;20132;-81
2023/03/28 02:10:57;;;;;;;10.52;2.08;;;1.80;99.90;;;;;;5088560;28;20488;-81
2023/03/28 02:13:29;;;;;;;7.53;1.40;;;1.60;99.90;;;;;;5092130;28;20040;-80
2023/03/28 02:15:59;;;;;;;10.10;1.67;;;1.70;99.90;;;;;;5108998;28;20083;-81
2023/03/28 02:18:33;;;;;;;12.60;1.70;;;1.60;99.90;;;;;;5089525;28;20053;-81
2023/03/28 02:21:08;;;;;;;6.72;1.48;;;1.60;99.90;;;;;;5072620;28;20542;-81
2023/03/28 02:23:46;;;;;;;9.13;1.33;;;1.50;99.90;;;;;;5088995;28;20029;-81
2023/03/28 02:26:13;;;;;;;8.95;1.50;;;1.50;99.90;;;;;;5072400;28;20512;-81
2023/03/28 02:28:42;;;;;;;9.15;1.50;;;1.50;99.90;;;;;;5088165;28;20036;-81
2023/03/28 02:31:10;;;;;;;7.97;1.40;;;1.40;99.90;;;;;;5089673;28;20037;-81
2023/03/28 02:33:40;;;;;;;9.80;1.88;;;1.50;99.90;;;;;;5091666;28;20072;-81
2023/03/28 02:36:30;;;;;;;15.00;1.50;;;2.00;99.90;;;;;;5092090;28;20040;-81
2023/03/28 02:39:14;;;;;;;9.68;1.30;;;2.00;99.90;;;;;;5090174;28;20067;-80
2023/03/28 02:42:02;;;;;;;4.75;0.95;;;1.30;99.90;;;;;;5104539;28;20791;-80
2023/03/28 02:44:44;;;;;;;8.60;1.38;;;1.30;99.90;;;;;;5104913;28;20509;-80
2023/03/28 02:47:20;;;;;;;6.35;1.20;;;1.20;99.90;;;;;;5119319;28;20029;-81
2023/03/28 02:50:24;;;;;;;10.55;1.55;;;1.20;99.90;;;;;;5070868;28;20044;-81
2023/03/28 02:52:59;;;;;;;7.13;1.65;;;1.10;99.90;;;;;;5095723;28;20052;-81
2023/03/28 02:55:55;;;;;;;12.50;1.87;;;1.10;99.90;;;;;;5067949;28;20149;-81
2023/03/28 02:58:28;;;;;;;16.48;1.38;;;1.10;99.90;;;;;;5095783;28;20043;-81
2023/03/28 03:00:55;;;;;;;12.05;1.60;;;1.00;99.90;;;;;;5071506;28;20041;-81
2023/03/28 03:03:22;;;;;;;15.65;1.63;;;1.00;99.90;;;;;;5055029;28;20048;-80
2023/03/28 03:05:49;;;;;;;11.18;1.63;;;1.00;99.90;;;;;;5071216;28;20130;-80
2023/03/28 03:08:16;;;;;;;17.80;3.13;;;1.50;99.90;;;;;;5054833;28;20543;-80
2023/03/28 03:10:42;;;;;;;11.95;1.83;;;0.90;99.90;;;;;;5054678;28;20147;-81
2023/03/28 03:13:09;;;;;;;7.63;1.27;;;1.40;99.90;;;;;;5071107;28;20115;-82
2023/03/28 03:15:36;;;;;;;8.05;1.60;;;1.00;99.90;;;;;;5104023;28;20049;-82
2023/03/28 03:18:03;;;;;;;6.85;1.40;;;0.80;99.90;;;;;;5067216;28;20045;-81
2023/03/28 03:20:32;;;;;;;5.57;1.30;;;0.80;99.90;;;;;;5051049;28;20038;-82
2023/03/28 03:23:02;;;;;;;8.60;1.65;;;0.90;99.90;;;;;;5097362;28;20079;-81
2023/03/28 03:25:30;;;;;;;6.68;1.20;;;0.70;99.90;;;;;;5087343;28;20576;-82
2023/03/28 03:27:56;;;;;;;6.82;1.52;;;0.70;99.90;;;;;;5054719;28;20029;-82
2023/03/28 03:30:23;;;;;;;10.13;1.60;;;0.60;99.90;;;;;;5054366;28;20037;-82
2023/03/28 03:32:50;;;;;;;11.85;1.67;;;0.60;99.90;;;;;;5104224;28;20037;-82
2023/03/28 03:35:18;;;;;;;5.00;1.08;;;0.90;99.90;;;;;;5085785;28;20114;-81
2023/03/28 03:37:45;;;;;;;3.50;0.75;;;0.60;99.90;;;;;;5074172;28;20523;-81
2023/03/28 03:40:12;;;;;;;7.93;1.40;;;0.50;99.90;;;;;;5074673;28;20269;-81
2023/03/28 03:42:39;;;;;;;7.40;1.20;;;0.50;99.90;;;;;;5074023;28;20032;-81
2023/03/28 03:45:08;;;;;;;6.68;1.40;;;0.50;99.90;;;;;;5062926;28;20036;-81
2023/03/28 03:47:35;;;;;;;11.95;1.73;;;0.50;99.90;;;;;;5076042;28;20045;-82
2023/03/28 03:50:02;;;;;;;11.43;1.40;;;0.50;99.90;;;;;;5083890;28;20095;-81
2023/03/28 03:52:28;;;;;;;8.95;1.38;;;0.40;99.90;;;;;;5050534;28;20144;-82
2023/03/28 03:54:55;;;;;;;10.43;1.90;;;0.50;99.90;;;;;;5090006;28;20036;-81
2023/03/28 03:57:22;;;;;;;8.07;2.03;;;1.30;99.90;;;;;;5057318;28;20119;-81
2023/03/28 03:59:49;;;;;;;5.95;1.10;;;0.40;99.90;;;;;;5069875;28;20033;-81
2023/03/28 04:02:15;;;;;;;10.05;1.50;;;0.40;99.90;;;;;;5072022;28;20072;-82
2023/03/28 04:04:44;;;;;;;9.15;1.73;;;0.40;99.90;;;;;;5073367;28;20071;-82
2023/03/28 04:07:12;;;;;;;8.98;1.73;;;0.30;99.90;;;;;;5090384;28;20048;-81
2023/03/28 04:09:38;;;;;;;7.90;1.27;;;0.30;99.90;;;;;;5090005;28;20072;-82
2023/03/28 04:12:06;;;;;;;13.27;1.65;;;0.20;99.90;;;;;;5074018;28;20083;-81
2023/03/28 04:14:33;;;;;;;5.70;1.73;;;0.40;99.90;;;;;;5073181;28;20056;-83
2023/03/28 04:17:00;;;;;;;11.25;1.63;;;0.80;99.90;;;;;;5077339;28;20044;-81
2023/03/28 04:19:27;;;;;;;7.20;1.20;;;0.10;99.90;;;;;;5065984;28;20045;-82
2023/03/28 04:21:55;;;;;;;10.15;1.40;;;0.10;99.90;;;;;;5050183;28;20045;-82
2023/03/28 04:24:25;;;;;;;10.80;1.52;;;0.30;99.90;;;;;;5054225;28;20037;-82
2023/03/28 04:26:55;;;;;;;5.93;1.20;;;0.00;99.90;;;;;;5053013;28;20501;-82
2023/03/28 04:29:29;;;;;;;9.63;1.23;;;0.00;99.90;;;;;;5037569;28;20346;-82
2023/03/28 04:31:57;;;;;;;10.07;1.52;;;0.00;99.90;;;;;;5070285;28;20570;-82
2023/03/28 04:34:28;;;;;;;11.15;1.55;;;-0.10;99.90;;;;;;5069570;28;20040;-82
2023/03/28 04:37:02;;;;;;;6.70;1.00;;;-0.10;99.90;;;;;;5100239;28;20046;-82
2023/03/28 04:39:30;;;;;;;7.90;1.60;;;-0.10;99.90;;;;;;5071727;28;20512;-82
2023/03/28 04:42:00;;;;;;;7.80;1.50;;;0.00;99.90;;;;;;5085416;28;20049;-82
2023/03/28 04:44:28;;;;;;;8.38;2.08;;;-0.10;99.90;;;;;;5069298;28;20045;-82
2023/03/28 04:46:55;;;;;;;9.13;2.00;;;-0.10;99.90;;;;;;5068988;28;20049;-82
2023/03/28 04:49:22;;;;;;;11.75;1.70;;;0.80;99.90;;;;;;5068678;28;20354;-82
2023/03/28 04:51:49;;;;;;;14.07;1.65;;;-0.10;99.90;;;;;;5049348;28;20038;-82
2023/03/28 04:54:16;;;;;;;9.75;2.00;;;-0.10;99.90;;;;;;5111489;28;20036;-82
2023/03/28 04:56:44;;;;;;;8.82;1.65;;;0.00;99.90;;;;;;5085696;28;20099;-82
2023/03/28 04:59:11;;;;;;;9.82;1.85;;;-0.10;99.90;;;;;;5072851;28;20124;-82
2023/03/28 05:01:38;;;;;;;13.40;2.35;;;0.00;99.90;;;;;;5068313;28;20141;-82
2023/03/28 05:04:05;;;;;;;12.35;1.50;;;0.00;99.90;;;;;;5035799;28;20091;-82
2023/03/28 05:06:32;;;;;;;8.73;1.52;;;0.00;99.90;;;;;;5051755;28;20048;-82
2023/03/28 05:08:59;;;;;;;6.35;1.75;;;0.60;99.90;;;;;;5070218;28;20064;-82
2023/03/28 05:11:28;;;;;;;12.48;1.65;;;0.00;99.90;;;;;;5036232;28;20047;-82
2023/03/28 05:13:55;;;;;;;9.60;1.63;;;0.10;99.90;;;;;;5067409;28;20064;-82
2023/03/28 05:16:21;;;;;;;10.45;1.67;;;0.90;99.90;;;;;;5052559;28;20041;-82
2023/03/28 05:18:48;;;;;;;9.30;1.52;;;0.80;99.90;;;;;;5084445;28;20056;-82
2023/03/28 05:21:15;;;;;;;16.55;1.65;;;0.10;99.90;;;;;;5075145;28;20057;-82
2023/03/28 05:23:42;;;;;;;13.10;2.05;;;0.30;99.90;;;;;;5064672;28;20046;-82
2023/03/28 05:26:09;;;;;;;14.63;2.05;;;0.00;99.90;;;;;;5068472;28;20039;-81
2023/03/28 05:28:35;;;;;;;7.78;1.50;;;0.00;99.90;;;;;;5068852;28;20037;-82
2023/03/28 05:31:02;;;;;;;7.30;1.90;;;0.00;99.90;;;;;;5068199;28;20156;-82
2023/03/28 05:33:31;;;;;;;12.88;1.70;;;0.00;99.90;;;;;;5045244;28;20102;-82
2023/03/28 05:35:59;;;;;;;10.88;1.63;;;0.10;99.90;;;;;;5067153;28;20057;-82
2023/03/28 05:38:26;;;;;;;13.48;2.30;;;0.10;99.90;;;;;;5052208;28;20182;-82
2023/03/28 05:40:53;;;;;;;11.40;1.83;;;0.10;99.90;;;;;;5068173;28;20037;-82
2023/03/28 05:43:19;;;;;;;10.52;1.85;;;0.50;99.90;;;;;;5067580;28;20036;-82
2023/03/28 05:45:46;;;;;;;9.23;2.28;;;0.80;99.90;;;;;;5051473;28;20123;-82
2023/03/28 05:48:13;;;;;;;8.52;2.05;;;0.20;99.90;;;;;;5051892;28;20086;-82
2023/03/28 05:50:40;;;;;;;10.65;2.22;;;0.30;99.90;;;;;;5067028;28;20143;-82
2023/03/28 05:53:06;;;;;;;10.00;2.20;;;0.30;99.90;;;;;;5084429;28;20037;-81
2023/03/28 05:55:33;;;;;;;12.60;2.03;;;0.30;99.90;;;;;;5113158;28;20044;-82
2023/03/28 05:58:00;;;;;;;13.10;2.05;;;0.40;99.90;;;;;;5068143;28;20080;-82
2023/03/28 06:00:27;;;;;;;4.80;1.45;;;0.40;99.90;;;;;;5105893;28;20040;-83
2023/03/28 06:02:54;;;;;;;9.20;2.22;;;0.40;99.90;;;;;;5035168;28;20033;-82
2023/03/28 06:05:21;;;;;;;9.88;1.60;;;0.40;99.90;;;;;;5068375;28;20128;-82
2023/03/28 06:07:47;;;;;;;12.05;1.92;;;0.60;99.90;;;;;;5067856;28;20472;-82
2023/03/28 06:10:14;;;;;;;9.88;2.58;;;0.40;99.90;;;;;;5051691;28;20412;-82
2023/03/28 06:12:41;;;;;;;10.55;1.70;;;0.80;99.90;;;;;;5048060;28;20041;-82
2023/03/28 06:15:10;;;;;;;9.32;1.92;;;1.00;99.90;;;;;;5064430;28;20080;-82
2023/03/28 06:17:37;;;;;;;22.30;3.25;;;0.50;99.90;;;;;;5085158;28;20083;-82
2023/03/28 06:20:05;;;;;;;11.13;2.40;;;0.80;99.90;;;;;;5067345;28;20082;-82
2023/03/28 06:22:32;;;;;;;7.93;2.05;;;0.60;99.90;;;;;;5067990;28;20119;-81
2023/03/28 06:25:00;;;;;;;13.98;1.63;;;0.90;99.90;;;;;;5068682;28;20044;-82
2023/03/28 06:27:26;;;;;;;11.20;1.92;;;0.70;99.90;;;;;;5088231;28;20087;-82
2023/03/28 06:29:53;;;;;;;12.10;2.22;;;1.40;99.90;;;;;;5087661;28;20037;-82
2023/03/28 06:32:21;;;;;;;15.25;1.90;;;0.80;99.90;;;;;;5087574;28;20121;-83
2023/03/28 06:34:47;;;;;;;11.65;2.33;;;0.90;99.90;;;;;;5088156;28;20029;-82
2023/03/28 06:37:14;;;;;;;11.90;2.25;;;0.90;99.90;;;;;;5071409;28;20041;-82
2023/03/28 06:39:41;;;;;;;14.63;2.47;;;0.90;99.90;;;;;;5054921;28;20084;-82
2023/03/28 06:42:07;;;;;;;10.90;2.38;;;1.30;99.90;;;;;;5087305;28;20510;-82
2023/03/28 06:44:34;;;;;;;12.30;2.30;;;1.00;99.90;;;;;;5087590;28;20037;-82
2023/03/28 06:47:01;;;;;;;13.93;2.38;;;1.10;99.90;;;;;;5104166;28;20098;-82
2023/03/28 06:49:28;;;;;;;10.45;1.98;;;1.80;99.90;;;;;;5065297;28;20033;-83
2023/03/28 06:51:55;;;;;;;13.45;2.03;;;1.20;99.90;;;;;;5077429;28;20045;-83
2023/03/28 06:54:21;;;;;;;11.32;2.00;;;1.60;99.90;;;;;;5087329;28;20041;-82
2023/03/28 06:56:48;;;;;;;12.02;2.15;;;1.30;99.90;;;;;;5054647;28;20037;-83
2023/03/28 06:59:15;;;;;;;9.35;1.48;;;1.40;99.90;;;;;;5087368;28;20484;-82
2023/03/28 07:01:41;;;;;;;8.88;1.95;;;1.40;99.90;;;;;;5085796;28;20496;-82
2023/03/28 07:04:08;;;;;;;7.80;1.95;;;1.60;99.90;;;;;;5054134;28;20044;-83
2023/03/28 07:06:35;;;;;;;14.15;2.00;;;1.60;99.90;;;;;;5070472;28;20156;-82
2023/03/28 07:09:02;;;;;;;12.45;2.00;;;1.70;99.90;;;;;;5054234;28;20036;-81
2023/03/28 07:11:28;;;;;;;15.30;2.17;;;1.80;99.90;;;;;;5053743;28;20040;-83
2023/03/28 07:13:55;;;;;;;8.40;2.05;;;1.90;99.90;;;;;;5053713;28;20416;-82
2023/03/28 07:16:22;;;;;;;11.10;2.25;;;2.50;99.90;;;;;;5087692;28;20041;-82
2023/03/28 07:18:49;;;;;;;18.25;2.17;;;2.20;99.90;;;;;;5070736;28;20124;-82
2023/03/28 07:21:17;;;;;;;12.82;2.20;;;2.20;99.90;;;;;;5069842;28;20052;-81
2023/03/28 07:23:45;;;;;;;10.55;2.50;;;2.80;99.90;;;;;;5087753;28;20455;-80
2023/03/28 07:26:13;;;;;;;9.88;2.30;;;2.60;99.90;;;;;;5086316;28;20033;-81
2023/03/28 07:28:40;;;;;;;9.32;2.10;;;2.90;99.90;;;;;;5070811;28;20063;-82
2023/03/28 07:31:07;;;;;;;7.70;1.75;;;3.10;99.90;;;;;;5068418;28;20067;-81
2023/03/28 07:33:35;;;;;;;16.40;2.10;;;3.30;99.90;;;;;;5086900;28;20076;-80
2023/03/28 07:36:14;;;;;;;8.60;1.70;;;3.50;99.90;;;;;;5068694;28;20045;-81
2023/03/28 07:38:41;;;;;;;7.38;2.40;;;3.60;99.90;;;;;;5052577;28;20130;-81
2023/03/28 07:41:08;;;;;;;11.68;2.22;;;3.70;99.90;;;;;;5069839;28;20072;-85
2023/03/28 07:43:36;;;;;;;7.68;1.60;;;3.80;99.90;;;;;;5065250;28;20139;-86
2023/03/28 07:46:05;;;;;;;7.70;1.40;;;3.90;99.90;;;;;;5086419;28;20051;-86
2023/03/28 07:48:33;;;;;;;12.18;1.20;;;3.90;99.90;;;;;;5065833;28;20032;-86
2023/03/28 07:51:00;;;;;;;7.97;1.40;;;4.20;99.90;;;;;;5069780;28;20048;-86
2023/03/28 07:53:27;;;;;;;6.85;1.60;;;4.20;99.90;;;;;;5086065;28;20064;-86
2023/03/28 07:55:54;;;;;;;15.07;2.65;;;4.20;99.90;;;;;;5103030;28;20056;-87
2023/03/28 07:58:21;;;;;;;13.25;1.85;;;4.30;99.90;;;;;;5086730;28;20041;-86
2023/03/28 08:00:47;;;;;;;14.65;2.58;;;4.40;99.90;;;;;;5053638;28;20044;-87
2023/03/28 08:03:15;;;;;;;8.70;1.60;;;4.50;99.90;;;;;;5069004;28;20083;-86
2023/03/28 08:05:48;;;;;;;8.20;1.63;;;4.50;99.90;;;;;;5050525;28;20498;-88
2023/03/28 08:08:14;;;;;;;7.05;1.80;;;4.60;99.90;;;;;;5053560;28;20043;-87
2023/03/28 08:10:44;;;;;;;7.47;1.52;;;4.60;99.90;;;;;;5053365;28;20040;-86
2023/03/28 08:13:11;;;;;;;9.93;1.83;;;4.70;99.90;;;;;;5086499;28;20083;-87
2023/03/28 08:15:38;;;;;;;8.35;1.63;;;4.80;99.90;;;;;;5069142;28;20089;-86
2023/03/28 08:18:05;;;;;;;10.10;1.55;;;4.80;99.90;;;;;;5049695;28;20056;-88
2023/03/28 08:20:32;;;;;;;11.18;1.70;;;4.80;99.90;;;;;;5086571;28;20048;-88
2023/03/28 08:22:58;;;;;;;10.85;2.03;;;4.90;99.90;;;;;;5085492;28;20079;-87
2023/03/28 08:25:25;;;;;;;8.30;1.63;;;5.00;99.90;;;;;;5085711;28;20451;-87
2023/03/28 08:27:52;;;;;;;10.90;1.85;;;5.00;99.90;;;;;;5103156;28;20041;-87
2023/03/28 08:30:19;;;;;;;12.75;2.03;;;5.10;99.90;;;;;;5064090;28;20033;-87
2023/03/28 08:32:48;;;;;;;10.35;1.75;;;5.00;99.90;;;;;;5102885;28;20182;-88
2023/03/28 08:35:15;;;;;;;8.02;1.98;;;5.30;99.90;;;;;;5068655;28;20037;-88
2023/03/28 08:37:41;;;;;;;10.48;1.80;;;5.00;99.90;;;;;;5065802;28;20041;-88
2023/03/28 08:40:15;;;;;;;11.35;1.40;;;5.00;99.90;;;;;;5066268;28;20099;-87
2023/03/28 08:43:07;;;;;;;7.60;1.30;;;5.10;99.90;;;;;;5060882;28;20118;-87
2023/03/28 08:45:54;;;;;;;7.22;1.65;;;5.20;99.90;;;;;;5073344;28;20512;-87
2023/03/28 08:48:23;;;;;;;;;;;5.40;99.90;;;;;;5086201;28;20493;-87
2023/03/28 08:50:58;;;;;;;5.85;1.40;;;5.60;99.90;;;;;;5092387;28;19923;-86
2023/03/28 08:53:29;;;;;;;12.27;1.70;;;5.80;99.90;;;;;;5101959;28;20041;-86
2023/03/28 08:55:56;;;;;;;6.15;1.40;;;6.00;99.90;;;;;;5069740;28;20045;-86
2023/03/28 08:58:26;;;;;;;10.80;2.03;;;6.00;99.90;;;;;;5084732;28;20051;-86
2023/03/28 09:00:53;;;;;;;5.78;1.20;;;6.00;99.90;;;;;;5084233;28;20520;-86
2023/03/28 09:03:22;;;;;;;7.93;1.23;;;6.00;99.90;;;;;;5068703;28;20045;-85
2023/03/28 09:06:06;;;;;;;10.05;1.30;;;6.10;99.90;;;;;;5084449;28;20489;-85
2023/03/28 09:08:52;;;;;;;6.47;1.50;;;6.10;99.90;;;;;;5068068;28;20044;-87
2023/03/28 09:11:48;;;;;;;7.78;1.23;;;6.20;99.90;;;;;;5068595;28;20127;-87
2023/03/28 09:15:02;;;;;;;5.82;0.90;;;6.20;99.90;;;;;;5108121;28;20107;-86
2023/03/28 09:17:53;;;;;;;8.65;1.20;;;6.20;99.90;;;;;;5101744;28;20505;-85
2023/03/28 09:20:35;;;;;;;5.20;1.23;;;6.30;99.90;;;;;;5069257;28;20071;-85
2023/03/28 09:23:22;;;;;;;8.23;1.20;;;6.40;99.90;;;;;;5084312;28;20033;-85
2023/03/28 09:26:11;;;;;;;5.28;1.05;;;6.40;99.90;;;;;;5108719;28;20045;-85
2023/03/28 09:28:57;;;;;;;6.82;1.75;;;6.30;99.90;;;;;;5060178;28;20037;-85
2023/03/28 09:31:30;;;;;;;3.93;1.10;;;6.20;99.90;;;;;;5067930;28;20063;-86
2023/03/28 09:33:58;;;;;;;3.67;0.80;;;6.20;99.90;;;;;;5101607;28;20284;-86
2023/03/28 09:36:42;;;;;;;7.65;1.23;;;6.20;99.90;;;;;;5083923;28;20044;-85
2023/03/28 09:39:32;;;;;;;3.58;0.73;;;6.20;99.90;;;;;;5067909;28;20037;-87
2023/03/28 09:42:17;;;;;;;8.00;1.45;;;6.10;99.90;;;;;;5068842;28;20045;-86
2023/03/28 09:44:56;;;;;;;3.97;1.00;;;6.30;99.90;;;;;;5095015;28;20425;-87
2023/03/28 09:47:23;;;;;;;5.35;1.10;;;6.30;99.90;;;;;;5068421;28;20045;-86
2023/03/28 09:49:50;;;;;;;6.63;1.50;;;6.40;99.90;;;;;;5084515;28;20044;-87
2023/03/28 09:52:20;;;;;;;4.85;1.00;;;6.50;99.90;;;;;;5051030;28;20128;-87
2023/03/28 09:54:47;;;;;;;4.72;0.93;;;6.60;99.90;;;;;;5085506;28;20049;-86
2023/03/28 09:57:14;;;;;;;5.22;1.20;;;6.60;99.90;;;;;;5065373;28;20084;-86
2023/03/28 09:59:41;;;;;;;2.38;0.80;;;6.60;99.90;;;;;;5051316;28;20094;-87
2023/03/28 10:02:31;;;;;;;7.97;1.30;;;6.60;99.90;;;;;;5095879;28;20052;-87
2023/03/28 10:04:57;;;;;;;9.45;1.65;;;6.60;99.90;;;;;;5105452;28;20041;-87
2023/03/28 10:07:42;;;;;;;3.63;1.20;;;6.60;99.90;;;;;;5070965;28;20041;-86
2023/03/28 10:10:20;;;;;;;7.07;1.15;;;6.90;99.90;;;;;;5072426;28;20909;-87
2023/03/28 10:13:10;;;;;;;2.65;0.90;;;7.00;99.90;;;;;;5165475;27;20895;-86
2023/03/28 10:15:44;;;;;;;2.72;0.90;;;7.00;99.90;;;;;;5144046;28;20036;-86
2023/03/28 10:18:17;;;;;;;3.75;1.15;;;7.20;99.90;;;;;;5146056;28;20118;-85
2023/03/28 10:20:44;;;;;;;6.30;1.40;;;7.40;99.90;;;;;;5141636;28;20156;-86
2023/03/28 10:23:12;;;;;;;3.28;1.00;;;7.40;99.90;;;;;;5160002;27;20708;-86
2023/03/28 10:25:44;;;;;;;4.20;0.88;;;7.20;99.90;;;;;;5130327;28;20036;-86
2023/03/28 10:28:19;;;;;;;3.67;0.98;;;7.30;99.90;;;;;;5146886;28;20445;-86
2023/03/28 10:30:56;;;;;;;4.90;1.45;;;7.40;99.90;;;;;;5164522;28;20130;-87
2023/03/28 10:33:26;;;;;;;8.85;0.93;;;7.40;99.90;;;;;;5144244;28;20487;-86
2023/03/28 10:35:56;;;;;;;4.95;0.95;;;7.20;99.90;;;;;;5164904;28;20039;-88
2023/03/28 10:38:25;;;;;;;4.65;1.20;;;7.20;99.90;;;;;;5146988;28;20043;-87
2023/03/28 10:41:03;;;;;;;6.95;1.50;;;7.10;99.90;;;;;;5127349;28;20277;-85
2023/03/28 10:43:37;;;;;;;3.92;1.02;;;7.00;99.90;;;;;;5142654;28;20043;-87
2023/03/28 10:46:30;;;;;;;2.83;1.05;;;7.20;99.90;;;;;;5138238;28;20387;-87
2023/03/28 10:49:00;;;;;;;7.50;1.30;;;7.20;99.90;;;;;;5149781;28;20055;-87
2023/03/28 10:51:30;;;;;;;3.67;0.88;;;7.40;99.90;;;;;;5134890;28;20040;-87
2023/03/28 10:54:09;;;;;;;6.05;1.05;;;7.40;99.90;;;;;;5122050;28;20066;-83
2023/03/28 10:57:05;;;;;;;3.67;0.90;;;7.60;99.90;;;;;;5141315;28;20066;-85
2023/03/28 10:59:46;;;;;;;;;;;7.70;99.90;;;;;;5163943;28;20035;-89
2023/03/28 11:02:36;;;;;;;4.93;1.08;;;7.60;99.90;;;;;;5131209;28;19920;-83
2023/03/28 11:05:15;;;;;;;5.00;1.00;;;7.50;99.90;;;;;;5134394;28;20507;-90
2023/03/28 11:07:59;;;;;;;3.80;0.90;;;7.50;99.90;;;;;;5147437;28;20047;-90
2023/03/28 11:11:00;;;;;;;6.32;1.20;;;7.50;99.90;;;;;;5146478;28;20047;-87
2023/03/28 11:13:27;;;;;;;4.05;1.00;;;7.60;99.90;;;;;;5148232;28;20412;-90
2023/03/28 11:16:10;;;;;;;9.88;1.73;;;7.60;99.90;;;;;;5137141;28;20041;-90
2023/03/28 11:18:49;;;;;;;6.68;1.17;;;7.60;99.90;;;;;;5145042;28;20040;-90
2023/03/28 11:21:28;;;;;;;3.33;1.00;;;7.70;99.90;;;;;;5134556;28;20039;-89
2023/03/28 11:24:17;;;;;;;4.03;0.90;;;7.80;99.90;;;;;;5126002;28;20096;-90
2023/03/28 11:27:10;;;;;;;6.78;1.40;;;7.70;99.90;;;;;;5119173;28;20711;-90
2023/03/28 11:29:45;;;;;;;3.92;1.02;;;7.70;99.90;;;;;;5112784;28;20369;-90
2023/03/28 11:32:18;;;;;;;3.40;0.90;;;7.80;99.90;;;;;;5113609;28;20067;-90
2023/03/28 11:35:04;;;;;;;3.58;0.90;;;7.70;99.90;;;;;;5122684;28;20298;-90
2023/03/28 11:37:40;;;;;;;4.53;1.00;;;7.80;99.90;;;;;;5142281;28;20114;-90
2023/03/28 11:40:17;;;;;;;3.92;1.05;;;7.80;99.90;;;;;;5122643;28;20047;-90
2023/03/28 11:42:48;;;;;;;4.68;1.35;;;7.80;99.90;;;;;;5129036;28;20094;-89
2023/03/28 11:45:29;;;;;;;3.40;1.08;;;7.90;99.90;;;;;;5129949;28;20400;-90
2023/03/28 11:48:21;;;;;;;5.65;1.25;;;8.10;99.90;;;;;;5119972;28;20039;-89
2023/03/28 11:51:00;;;;;;;4.97;1.05;;;8.30;99.90;;;;;;5144726;28;20040;-91
2023/03/28 11:53:44;;;;;;;5.18;0.80;;;8.50;99.90;;;;;;5138255;28;20051;-84
2023/03/28 11:56:29;;;;;;;4.18;1.00;;;8.60;99.90;;;;;;5129523;28;20547;-83
2023/03/28 11:59:10;;;;;;;2.17;0.90;;;8.60;99.90;;;;;;5132012;28;20035;-82
2023/03/28 12:01:41;;;;;;;5.15;1.40;;;8.60;99.90;;;;;;5146730;28;20427;-84
2023/03/28 12:04:20;;;;;;;4.13;1.00;;;8.70;99.90;;;;;;5138749;28;20035;-89
2023/03/28 12:06:52;;;;;;;3.10;0.80;;;8.70;99.90;;;;;;5126569;28;20043;-88
2023/03/28 12:09:27;;;;;;;4.18;0.90;;;8.80;99.90;;;;;;5130235;28;20040;-89
2023/03/28 12:12:02;;;;;;;2.80;0.82;;;8.80;99.90;;;;;;5129180;28;20059;-89
2023/03/28 12:14:41;;;;;;;5.13;1.23;;;8.70;99.40;;;;;;5125620;28;20544;-84
2023/03/28 12:17:22;;;;;;;3.20;1.05;;;8.60;99.30;;;;;;5123186;28;20044;-89
2023/03/28 12:19:49;;;;;;;5.85;1.10;;;8.50;98.70;;;;;;5130809;28;20214;-88
2023/03/28 12:22:39;;;;;;;6.50;2.35;;;8.50;99.90;;;;;;5117976;28;20102;-89
2023/03/28 12:25:11;;;;;;;3.97;1.02;;;8.50;99.90;;;;;;5137085;28;20591;-88
2023/03/28 12:27:46;;;;;;;2.90;1.02;;;8.40;99.90;;;;;;5132158;28;20123;-89
2023/03/28 12:30:37;;;;;;;6.63;1.23;;;8.40;99.90;;;;;;5118099;28;20525;-90
2023/03/28 12:33:22;;;;;;;4.45;1.05;;;8.40;99.90;;;;;;5122359;28;20044;-89
2023/03/28 12:36:17;;;;;;;3.47;1.00;;;8.50;99.90;;;;;;5117657;28;20066;-90
2023/03/28 12:38:52;;;;;;;3.88;1.08;;;8.60;99.90;;;;;;5129123;28;20036;-89
2023/03/28 12:41:25;;;;;;;4.55;1.08;;;8.60;99.90;;;;;;5124967;28;20119;-90
2023/03/28 12:43:56;;;;;;;6.07;1.30;;;8.60;99.90;;;;;;5112234;28;20044;-90
2023/03/28 12:46:33;;;;;;;4.22;1.15;;;8.60;99.90;;;;;;5112755;28;20058;-89
2023/03/28 12:49:07;;;;;;;3.78;1.20;;;8.60;99.90;;;;;;5123400;28;20768;-87
2023/03/28 12:51:42;;;;;;;3.63;1.20;;;8.60;99.90;;;;;;5140331;28;20117;-89
2023/03/28 12:54:14;;;;;;;4.38;1.20;;;8.80;99.90;;;;;;5129856;28;20036;-89
2023/03/28 12:57:03;;;;;;;3.28;1.02;;;8.80;99.90;;;;;;5118316;28;20040;-89
2023/03/28 13:00:04;;;;;;;5.07;1.15;;;8.80;98.60;;;;;;5123033;28;20031;-90
2023/03/28 13:02:41;;;;;;;4.25;1.38;;;8.80;99.90;;;;;;5115923;28;20044;-90
2023/03/28 13:05:25;;;;;;;4.78;1.20;;;8.80;99.90;;;;;;5120699;28;20047;-90
2023/03/28 13:08:07;;;;;;;5.60;1.30;;;8.80;99.90;;;;;;5128386;28;20043;-90
2023/03/28 13:11:03;;;;;;;4.43;1.20;;;8.70;99.90;;;;;;5138935;28;20035;-89
2023/03/28 13:13:39;;;;;;;4.93;1.20;;;8.70;99.90;;;;;;5148323;28;20048;-90
2023/03/28 13:16:13;;;;;;;4.43;1.13;;;8.70;99.90;;;;;;5140599;28;20032;-89
2023/03/28 13:19:03;;;;;;;3.17;1.00;;;8.70;99.90;;;;;;5138281;28;20032;-88
2023/03/28 13:21:59;;;;;;;3.42;1.00;;;8.60;99.90;;;;;;5122328;28;20522;-90
2023/03/28 13:24:32;;;;;;;4.95;1.23;;;8.70;99.90;;;;;;5095875;28;20125;-91